createdAt,value
2018-06-03T00:02:26.379Z,11.10
2018-06-03T00:04:53.717Z,11.33
2018-06-03T00:07:21.198Z,11.27
2018-06-03T00:09:48.486Z,12.23
2018-06-03T00:12:15.783Z,11.87
2018-06-03T00:14:43.214Z,12.73
2018-06-03T00:17:10.533Z,12.00
2018-06-03T00:19:37.988Z,12.93
2018-06-03T00:22:06.978Z,11.57
2018-06-03T00:24:34.293Z,12.30
2018-06-03T00:27:01.588Z,14.57
2018-06-03T00:29:28.963Z,15.33
2018-06-03T00:31:56.370Z,14.33
2018-06-03T00:34:23.906Z,15.67
2018-06-03T00:36:51.205Z,15.20
2018-06-03T00:39:19.496Z,15.70
2018-06-03T00:41:46.869Z,16.40
2018-06-03T00:44:14.254Z,17.50
2018-06-03T00:46:41.652Z,16.47
2018-06-03T00:49:09.139Z,17.10
2018-06-03T00:51:41.367Z,15.63
2018-06-03T00:54:08.684Z,16.43
2018-06-03T00:56:47.602Z,18.03
2018-06-03T00:59:15.392Z,16.63
2018-06-03T01:01:42.725Z,18.23
2018-06-03T01:04:10.069Z,18.20
2018-06-03T01:06:37.446Z,19.70
2018-06-03T01:09:05.396Z,17.77
2018-06-03T01:11:32.752Z,19.17
2018-06-03T01:14:00.390Z,18.60
2018-06-03T01:16:27.867Z,17.93
2018-06-03T01:18:55.328Z,19.27
2018-06-03T01:21:22.646Z,20.83
2018-06-03T01:23:49.987Z,21.03
2018-06-03T01:26:17.466Z,20.50
2018-06-03T01:28:44.847Z,19.80
2018-06-03T01:31:12.180Z,21.50
2018-06-03T01:33:39.566Z,21.70
2018-06-03T01:36:06.903Z,20.23
2018-06-03T01:38:34.447Z,21.90
2018-06-03T01:41:01.791Z,23.73
2018-06-03T01:43:29.152Z,23.13
2018-06-03T01:45:56.580Z,22.13
2018-06-03T01:48:23.936Z,21.20
2018-06-03T01:50:51.352Z,23.87
2018-06-03T01:53:18.702Z,21.97
2018-06-03T01:55:46.095Z,22.27
2018-06-03T01:58:13.478Z,24.00
2018-06-03T02:00:40.972Z,23.33
2018-06-03T02:03:08.346Z,21.90
2018-06-03T02:05:35.777Z,25.50
2018-06-03T02:08:03.125Z,23.77
2018-06-03T02:10:30.603Z,22.90
2018-06-03T02:12:57.945Z,24.30
2018-06-03T02:15:25.212Z,25.03
2018-06-03T02:17:52.485Z,23.37
2018-06-03T02:20:19.814Z,24.50
2018-06-03T02:22:47.239Z,23.07
2018-06-03T02:25:15.000Z,22.50
2018-06-03T02:27:42.276Z,23.83
2018-06-03T02:30:09.575Z,24.10
2018-06-03T02:32:36.979Z,23.67
2018-06-03T02:35:04.447Z,23.67
2018-06-03T02:37:31.747Z,23.43
2018-06-03T02:39:59.058Z,24.40
2018-06-03T02:42:26.393Z,24.30
2018-06-03T02:44:53.691Z,24.40
2018-06-03T02:47:21.017Z,25.40
2018-06-03T02:49:48.311Z,23.97
2018-06-03T02:52:15.661Z,23.20
2018-06-03T02:54:42.947Z,24.80
2018-06-03T02:57:10.362Z,25.73
2018-06-03T02:59:37.688Z,23.83
2018-06-03T03:02:06.394Z,23.00
2018-06-03T03:04:33.817Z,23.50
2018-06-03T03:07:01.156Z,25.90
2018-06-03T03:09:28.517Z,25.10
2018-06-03T03:11:56.028Z,23.83
2018-06-03T03:14:23.403Z,23.53
2018-06-03T03:16:50.757Z,26.50
2018-06-03T03:19:18.086Z,25.67
2018-06-03T03:21:45.838Z,27.00
2018-06-03T03:24:13.172Z,25.80
2018-06-03T03:26:40.891Z,25.20
2018-06-03T03:29:08.344Z,28.20
2018-06-03T03:31:36.035Z,28.20
2018-06-03T03:34:03.446Z,28.27
2018-06-03T03:36:30.779Z,27.40
2018-06-03T03:38:58.184Z,27.93
2018-06-03T03:41:25.530Z,28.47
2018-06-03T03:43:52.891Z,27.37
2018-06-03T03:46:20.253Z,30.30
2018-06-03T03:48:47.691Z,28.70
2018-06-03T03:51:15.057Z,28.87
2018-06-03T03:53:42.492Z,29.63
2018-06-03T03:56:09.855Z,26.93
2018-06-03T03:58:37.271Z,28.93
2018-06-03T04:01:04.662Z,30.40
2018-06-03T04:03:32.034Z,29.27
2018-06-03T04:05:59.391Z,28.13
2018-06-03T04:08:26.797Z,29.37
2018-06-03T04:10:54.181Z,27.10
2018-06-03T04:13:21.526Z,26.60
2018-06-03T04:15:48.933Z,27.80
2018-06-03T04:18:16.270Z,28.40
2018-06-03T04:20:43.878Z,27.80
2018-06-03T04:23:11.218Z,27.30
2018-06-03T04:25:38.538Z,27.20
2018-06-03T04:28:05.878Z,25.87
2018-06-03T04:30:33.368Z,28.00
2018-06-03T04:33:00.793Z,26.03
2018-06-03T04:35:28.546Z,26.63
2018-06-03T04:37:55.900Z,25.27
2018-06-03T04:40:23.222Z,25.90
2018-06-03T04:42:50.934Z,25.70
2018-06-03T04:45:18.299Z,25.23
2018-06-03T04:47:45.585Z,27.80
2018-06-03T04:50:13.219Z,25.10
2018-06-03T04:52:40.539Z,26.03
2018-06-03T04:55:08.227Z,27.90
2018-06-03T04:57:35.877Z,27.83
2018-06-03T05:00:03.284Z,28.90
2018-06-03T05:02:30.612Z,31.80
2018-06-03T05:04:58.007Z,28.13
2018-06-03T05:07:25.318Z,33.03
2018-06-03T05:09:52.638Z,31.47
2018-06-03T05:12:20.022Z,32.20
2018-06-03T05:14:48.945Z,32.97
2018-06-03T05:17:16.308Z,41.33
2018-06-03T05:19:43.991Z,38.83
2018-06-03T05:22:11.328Z,35.70
2018-06-03T05:24:38.785Z,39.37
2018-06-03T05:27:06.230Z,38.80
2018-06-03T05:29:33.651Z,36.37
2018-06-03T05:32:01.019Z,37.13
2018-06-03T05:34:28.393Z,37.80
2018-06-03T05:36:55.743Z,40.40
2018-06-03T05:39:23.060Z,38.07
2018-06-03T05:41:50.486Z,36.17
2018-06-03T05:44:17.802Z,39.27
2018-06-03T05:46:45.140Z,33.77
2018-06-03T05:49:12.655Z,35.50
2018-06-03T05:51:40.035Z,34.40
2018-06-03T05:54:07.462Z,35.27
2018-06-03T05:56:34.805Z,36.20
2018-06-03T05:59:02.159Z,35.40
2018-06-03T06:01:29.526Z,34.33
2018-06-03T06:03:56.987Z,34.40
2018-06-03T06:06:24.323Z,35.20
2018-06-03T06:08:51.575Z,35.20
2018-06-03T06:11:18.884Z,35.90
2018-06-03T06:13:46.250Z,35.30
2018-06-03T06:16:13.527Z,33.17
2018-06-03T06:18:41.029Z,33.47
2018-06-03T06:21:08.391Z,35.00
2018-06-03T06:23:35.713Z,32.63
2018-06-03T06:26:03.207Z,33.87
2018-06-03T06:28:30.502Z,31.13
2018-06-03T06:30:57.844Z,32.00
2018-06-03T06:33:25.198Z,31.47
2018-06-03T06:35:52.567Z,32.97
2018-06-03T06:38:19.858Z,31.50
2018-06-03T06:40:47.195Z,31.53
2018-06-03T06:43:14.529Z,30.60
2018-06-03T06:45:42.123Z,31.30
2018-06-03T06:48:09.429Z,32.60
2018-06-03T06:50:36.857Z,33.00
2018-06-03T06:53:04.144Z,31.07
2018-06-03T06:55:31.509Z,27.60
2018-06-03T06:57:58.791Z,31.60
2018-06-03T07:00:26.168Z,30.30
2018-06-03T07:02:53.581Z,31.77
2018-06-03T07:05:20.890Z,29.80
2018-06-03T07:07:48.415Z,31.93
2018-06-03T07:10:18.095Z,34.17
2018-06-03T07:12:45.395Z,32.47
2018-06-03T07:15:12.927Z,31.73
2018-06-03T07:17:40.332Z,33.13
2018-06-03T07:20:07.756Z,31.57
2018-06-03T07:22:35.079Z,29.70
2018-06-03T07:25:03.555Z,31.47
2018-06-03T07:27:30.885Z,32.90
2018-06-03T07:29:58.540Z,33.63
2018-06-03T07:32:25.899Z,33.13
2018-06-03T07:34:53.351Z,32.70
2018-06-03T07:37:20.667Z,30.73
2018-06-03T07:39:47.992Z,30.07
2018-06-03T07:42:15.346Z,33.50
2018-06-03T07:44:42.703Z,32.90
2018-06-03T07:47:11.164Z,31.87
2018-06-03T07:49:38.469Z,32.10
2018-06-03T07:52:05.830Z,32.17
2018-06-03T07:54:33.611Z,30.80
2018-06-03T07:57:01.123Z,29.97
2018-06-03T07:59:28.956Z,32.47
2018-06-03T08:01:56.513Z,34.03
2018-06-03T08:04:24.195Z,33.00
2018-06-03T08:06:51.805Z,33.73
2018-06-03T08:09:19.425Z,30.43
2018-06-03T08:11:48.672Z,30.53
2018-06-03T08:14:16.104Z,28.00
2018-06-03T08:16:43.420Z,29.77
2018-06-03T08:19:10.742Z,26.87
2018-06-03T08:21:38.303Z,26.67
2018-06-03T08:24:05.637Z,26.87
2018-06-03T08:26:33.243Z,26.67
2018-06-03T08:29:00.631Z,25.03
2018-06-03T08:31:27.951Z,24.50
2018-06-03T08:33:55.465Z,25.20
2018-06-03T08:36:22.877Z,26.40
2018-06-03T08:38:50.459Z,26.37
2018-06-03T08:41:18.017Z,28.47
2018-06-03T08:43:45.664Z,27.50
2018-06-03T08:46:14.155Z,27.23
2018-06-03T08:48:41.792Z,27.17
2018-06-03T08:51:09.404Z,27.43
2018-06-03T08:53:37.047Z,24.93
2018-06-03T08:56:04.608Z,28.20
2018-06-03T08:58:32.211Z,29.30
2018-06-03T09:00:59.761Z,27.27
2018-06-03T09:03:28.640Z,27.60
2018-06-03T09:05:56.393Z,27.23
2018-06-03T09:08:24.515Z,29.27
2018-06-03T09:10:52.060Z,28.23
2018-06-03T09:13:19.987Z,27.67
2018-06-03T09:15:47.549Z,28.47
2018-06-03T09:18:14.995Z,29.53
2018-06-03T09:20:42.502Z,27.60
2018-06-03T09:23:09.992Z,27.50
2018-06-03T09:25:37.757Z,28.27
2018-06-03T09:28:05.299Z,28.53
2018-06-03T09:30:32.571Z,27.97
2018-06-03T09:33:00.070Z,30.13
2018-06-03T09:35:27.406Z,29.60
2018-06-03T09:37:54.714Z,28.90
2018-06-03T09:40:22.036Z,30.30
2018-06-03T09:42:49.563Z,29.20
2018-06-03T09:45:16.966Z,28.70
2018-06-03T09:47:44.328Z,29.10
2018-06-03T09:50:12.449Z,27.07
2018-06-03T09:52:39.949Z,27.50
2018-06-03T09:55:07.226Z,27.60
2018-06-03T09:57:34.731Z,28.03
2018-06-03T10:00:02.333Z,28.87
2018-06-03T10:02:29.587Z,26.90
2018-06-03T10:04:56.932Z,26.60
2018-06-03T10:07:24.391Z,26.87
2018-06-03T10:09:52.799Z,26.67
2018-06-03T10:12:20.157Z,26.60
2018-06-03T10:14:47.479Z,25.77
2018-06-03T10:17:14.808Z,26.13
2018-06-03T10:19:43.453Z,25.37
2018-06-03T10:22:10.779Z,24.77
2018-06-03T10:24:38.229Z,24.63
2018-06-03T10:27:05.628Z,24.50
2018-06-03T10:29:32.976Z,26.40
2018-06-03T10:32:00.372Z,25.17
2018-06-03T10:34:27.738Z,24.83
2018-06-03T10:36:55.133Z,22.63
2018-06-03T10:39:22.468Z,23.33
2018-06-03T10:41:49.840Z,24.93
2018-06-03T10:44:17.222Z,23.40
2018-06-03T10:46:44.565Z,23.07
2018-06-03T10:49:12.307Z,22.27
2018-06-03T10:51:39.838Z,22.57
2018-06-03T10:54:07.214Z,22.23
2018-06-03T10:56:34.567Z,22.37
2018-06-03T10:59:02.490Z,24.20
2018-06-03T11:01:30.104Z,24.27
2018-06-03T11:03:57.648Z,23.90
2018-06-03T11:06:25.160Z,24.00
2018-06-03T11:08:52.774Z,23.60
2018-06-03T11:11:20.391Z,22.63
2018-06-03T11:13:48.122Z,21.50
2018-06-03T11:16:15.575Z,21.50
2018-06-03T11:18:43.078Z,22.40
2018-06-03T11:21:11.230Z,20.93
2018-06-03T11:23:38.576Z,23.17
2018-06-03T11:26:05.872Z,23.90
2018-06-03T11:28:39.364Z,22.17
2018-06-03T11:31:06.647Z,23.60
2018-06-03T11:33:33.960Z,22.70
2018-06-03T11:36:01.265Z,22.80
2018-06-03T11:38:28.566Z,22.63
2018-06-03T11:41:01.059Z,22.53
2018-06-03T11:43:28.327Z,23.57
2018-06-03T11:45:55.623Z,23.10
2018-06-03T11:48:22.923Z,23.60
2018-06-03T11:50:50.266Z,24.03
2018-06-03T11:53:17.573Z,26.03
2018-06-03T11:55:46.380Z,23.77
2018-06-03T11:58:53.517Z,25.27
2018-06-03T12:01:21.259Z,23.23
2018-06-03T12:03:48.771Z,25.23
2018-06-03T12:06:16.271Z,24.90
2018-06-03T12:08:45.258Z,26.80
2018-06-03T12:11:12.819Z,25.17
2018-06-03T12:13:40.343Z,23.30
2018-06-03T12:16:07.838Z,22.57
2018-06-03T12:18:35.354Z,22.40
2018-06-03T12:21:02.856Z,22.87
2018-06-03T12:23:33.684Z,23.57
2018-06-03T12:26:01.018Z,21.20
2018-06-03T12:28:28.452Z,20.70
2018-06-03T12:30:55.842Z,24.20
2018-06-03T12:33:41.658Z,22.73
2018-06-03T12:36:09.275Z,22.90
2018-06-03T12:38:36.940Z,21.57
2018-06-03T12:41:04.512Z,22.63
2018-06-03T12:43:32.070Z,21.20
2018-06-03T12:46:03.798Z,20.30
2018-06-03T12:48:31.425Z,21.63
2018-06-03T12:50:58.954Z,21.80
2018-06-03T12:53:26.485Z,20.83
2018-06-03T12:55:54.111Z,20.70
2018-06-03T12:58:21.459Z,20.53
2018-06-03T13:00:48.958Z,22.03
2018-06-03T13:03:18.467Z,22.70
2018-06-03T13:05:45.976Z,21.43
2018-06-03T13:08:13.550Z,21.27
2018-06-03T13:10:41.136Z,21.57
2018-06-03T13:13:08.670Z,21.53
2018-06-03T13:15:36.076Z,21.20
2018-06-03T13:18:06.632Z,22.20
2018-06-03T13:20:34.043Z,22.73
2018-06-03T13:23:01.672Z,22.47
2018-06-03T13:25:29.211Z,18.37
2018-06-03T13:27:56.812Z,19.70
2018-06-03T13:30:24.375Z,19.40
2018-06-03T13:35:24.327Z,20.20
2018-06-03T13:37:51.661Z,20.67
2018-06-03T13:40:18.986Z,19.80
2018-06-03T13:42:46.350Z,18.90
2018-06-03T13:45:13.694Z,18.53
2018-06-03T13:47:45.780Z,18.10
2018-06-03T13:50:13.131Z,16.13
2018-06-03T13:52:40.560Z,20.00
2018-06-03T13:55:07.928Z,17.57
2018-06-03T13:57:35.323Z,16.07
2018-06-03T14:00:02.827Z,17.33
2018-06-03T14:02:35.086Z,15.80
2018-06-03T14:05:02.478Z,16.33
2018-06-03T14:07:29.887Z,16.47
2018-06-03T14:09:57.247Z,15.90
2018-06-03T14:12:24.571Z,15.40
2018-06-03T14:14:51.941Z,15.30
2018-06-03T14:17:20.694Z,14.43
2018-06-03T14:19:48.001Z,15.30
2018-06-03T14:22:15.351Z,15.30
2018-06-03T14:24:42.811Z,14.70
2018-06-03T14:27:10.145Z,13.80
2018-06-03T14:29:37.708Z,14.80
2018-06-03T14:32:07.403Z,15.23
2018-06-03T14:34:34.755Z,13.83
2018-06-03T14:37:02.070Z,14.90
2018-06-03T14:39:29.430Z,15.60
2018-06-03T14:41:56.788Z,15.50
2018-06-03T14:44:29.380Z,14.27
2018-06-03T14:46:56.731Z,15.40
2018-06-03T14:49:24.049Z,16.20
2018-06-03T14:51:51.737Z,14.97
2018-06-03T14:54:19.072Z,15.50
2018-06-03T14:56:46.383Z,14.10
2018-06-03T14:59:16.506Z,14.33
2018-06-03T15:01:43.955Z,13.60
2018-06-03T15:04:11.331Z,15.37
2018-06-03T15:06:38.752Z,13.30
2018-06-03T15:09:06.988Z,13.37
2018-06-03T15:11:35.050Z,14.90
2018-06-03T15:14:04.216Z,13.53
2018-06-03T15:16:31.742Z,13.40
2018-06-03T15:18:59.324Z,14.20
2018-06-03T15:21:26.835Z,13.57
2018-06-03T15:23:54.581Z,13.10
2018-06-03T15:26:26.224Z,13.37
2018-06-03T15:28:53.622Z,11.73
2018-06-03T15:31:20.956Z,12.47
2018-06-03T15:33:48.537Z,13.70
2018-06-03T15:36:15.818Z,12.87
2018-06-03T15:38:43.147Z,12.80
2018-06-03T15:41:10.689Z,13.27
2018-06-03T15:43:39.090Z,11.63
2018-06-03T15:46:06.703Z,11.43
2018-06-03T15:48:34.375Z,11.30
2018-06-03T15:51:01.993Z,11.20
2018-06-03T15:53:29.518Z,11.30
2018-06-03T15:56:01.276Z,10.70
2018-06-03T15:58:28.709Z,10.60
2018-06-03T16:00:56.035Z,10.73
2018-06-03T16:03:23.396Z,9.50
2018-06-03T16:05:50.759Z,9.20
2018-06-03T16:08:18.183Z,9.67
2018-06-03T16:10:45.587Z,9.43
2018-06-03T16:13:16.803Z,8.50
2018-06-03T16:15:44.142Z,8.50
2018-06-03T16:18:11.547Z,8.87
2018-06-03T16:20:38.924Z,8.40
2018-06-03T16:23:06.295Z,8.80
2018-06-03T16:25:33.712Z,9.10
2018-06-03T16:28:04.909Z,8.60
2018-06-03T16:30:33.616Z,9.10
2018-06-03T16:33:00.958Z,9.00
2018-06-03T16:35:28.333Z,8.23
2018-06-03T16:37:55.741Z,8.80
2018-06-03T16:40:23.116Z,8.37
2018-06-03T16:42:57.495Z,7.93
2018-06-03T16:45:24.836Z,8.03
2018-06-03T16:47:52.189Z,7.07
2018-06-03T16:50:19.535Z,7.70
2018-06-03T16:52:46.980Z,7.93
2018-06-03T16:55:14.406Z,8.17
2018-06-03T16:57:46.189Z,8.40
2018-06-03T17:00:13.579Z,9.53
2018-06-03T17:02:41.012Z,8.23
2018-06-03T17:05:08.387Z,8.50
2018-06-03T17:07:35.755Z,8.50
2018-06-03T17:10:08.689Z,8.70
2018-06-03T17:12:36.053Z,7.70
2018-06-03T17:15:03.562Z,8.80
2018-06-03T17:17:30.964Z,8.17
2018-06-03T17:19:58.331Z,8.83
2018-06-03T17:22:27.762Z,8.63
2018-06-03T17:25:02.518Z,8.20
2018-06-03T17:27:29.897Z,7.63
2018-06-03T17:29:57.218Z,8.30
2018-06-03T17:32:24.585Z,9.00
2018-06-03T17:34:56.450Z,7.63
2018-06-03T17:37:23.819Z,7.50
2018-06-03T17:39:51.315Z,7.90
2018-06-03T17:42:18.669Z,9.57
2018-06-03T17:44:46.039Z,10.07
2018-06-03T17:47:13.379Z,9.27
2018-06-03T17:49:42.770Z,9.77
2018-06-03T17:52:12.915Z,9.27
2018-06-03T17:54:50.603Z,9.17
2018-06-03T17:57:24.154Z,9.07
2018-06-03T17:59:51.558Z,9.40
2018-06-03T18:02:19.008Z,9.20
2018-06-03T18:04:46.365Z,8.30
2018-06-03T18:07:13.799Z,9.67
2018-06-03T18:09:46.012Z,8.93
2018-06-03T18:12:13.366Z,8.20
2018-06-03T18:14:41.808Z,7.70
2018-06-03T18:17:09.353Z,9.17
2018-06-03T18:19:36.845Z,8.70
2018-06-03T18:22:09.316Z,9.60
2018-06-03T18:24:36.770Z,9.20
2018-06-03T18:27:04.299Z,8.77
2018-06-03T18:29:31.697Z,9.20
2018-06-03T18:31:59.099Z,7.73
2018-06-03T18:34:26.472Z,7.90
2018-06-03T18:37:00.580Z,8.27
2018-06-03T18:39:27.934Z,7.77
2018-06-03T18:41:56.814Z,7.43
2018-06-03T18:44:34.895Z,6.50
2018-06-03T18:47:07.152Z,7.90
2018-06-03T18:49:37.443Z,8.03
2018-06-03T18:52:05.247Z,8.60
2018-06-03T18:54:37.366Z,7.00
2018-06-03T18:57:07.195Z,7.60
2018-06-03T18:59:37.292Z,7.27
2018-06-03T19:02:18.538Z,8.00
2018-06-03T19:04:47.796Z,7.40
2018-06-03T19:07:15.420Z,7.80
2018-06-03T19:09:43.183Z,7.10
2018-06-03T19:12:11.090Z,7.03
2018-06-03T19:14:38.586Z,7.00
2018-06-03T19:17:06.297Z,6.40
2018-06-03T19:19:33.827Z,6.30
2018-06-03T19:22:01.426Z,6.30
2018-06-03T19:24:28.926Z,6.87
2018-06-03T19:26:56.505Z,7.00
2018-06-03T19:29:24.123Z,6.20
2018-06-03T19:31:51.733Z,6.03
2018-06-03T19:34:19.364Z,6.67
2018-06-03T19:36:46.939Z,6.77
2018-06-03T19:39:14.475Z,6.70
2018-06-03T19:41:42.055Z,7.00
2018-06-03T19:44:09.610Z,7.40
2018-06-03T19:46:37.395Z,7.10
2018-06-03T19:49:05.096Z,6.60
2018-06-03T19:51:32.709Z,6.70
2018-06-03T19:54:00.223Z,6.73
2018-06-03T19:56:27.860Z,7.07
2018-06-03T19:58:55.715Z,7.10
2018-06-03T20:01:23.382Z,7.20
2018-06-03T20:03:51.239Z,7.23
2018-06-03T20:06:18.921Z,7.00
2018-06-03T20:08:46.443Z,7.90
2018-06-03T20:11:28.524Z,7.83
2018-06-03T20:14:12.345Z,6.60
2018-06-03T20:16:45.902Z,7.27
2018-06-03T20:19:13.555Z,7.50
2018-06-03T20:21:41.565Z,7.40
2018-06-03T20:24:09.506Z,7.50
2018-06-03T20:26:37.522Z,8.10
2018-06-03T20:29:05.178Z,8.67
2018-06-03T20:31:32.715Z,7.23
2018-06-03T20:34:00.311Z,7.63
2018-06-03T20:36:27.859Z,7.37
2018-06-03T20:38:55.474Z,8.73
2018-06-03T20:41:23.081Z,8.90
2018-06-03T20:43:50.847Z,6.83
2018-06-03T20:46:18.537Z,9.43
2018-06-03T20:48:46.120Z,8.13
2018-06-03T20:51:13.659Z,7.60
2018-06-03T20:53:41.259Z,7.90
2018-06-03T20:56:08.920Z,7.93
2018-06-03T20:58:36.602Z,7.80
2018-06-03T21:01:04.168Z,9.30
2018-06-03T21:03:31.688Z,9.47
2018-06-03T21:06:00.018Z,8.83
2018-06-03T21:08:27.609Z,8.63
2018-06-03T21:10:55.113Z,9.00
2018-06-03T21:13:23.409Z,8.43
2018-06-03T21:15:50.939Z,8.60
2018-06-03T21:18:18.489Z,8.33
2018-06-03T21:20:46.120Z,8.80
2018-06-03T21:23:13.807Z,9.30
2018-06-03T21:25:41.348Z,9.30
2018-06-03T21:28:08.876Z,8.83
2018-06-03T21:30:36.591Z,9.50
2018-06-03T21:33:04.148Z,8.90
2018-06-03T21:35:31.639Z,9.03
2018-06-03T21:37:59.275Z,9.33
2018-06-03T21:40:26.888Z,9.23
2018-06-03T21:42:54.560Z,9.70
2018-06-03T21:45:22.215Z,9.50
2018-06-03T21:47:50.056Z,9.07
2018-06-03T21:50:17.682Z,10.10
2018-06-03T21:52:45.251Z,9.33
2018-06-03T21:55:12.846Z,8.50
2018-06-03T21:57:40.519Z,9.10
2018-06-03T22:00:08.058Z,10.27
2018-06-03T22:02:35.562Z,9.60
2018-06-03T22:05:03.124Z,9.90
2018-06-03T22:07:36.447Z,9.30
2018-06-03T22:10:04.284Z,9.00
2018-06-03T22:12:42.117Z,10.00
2018-06-03T22:15:15.799Z,11.20
2018-06-03T22:17:43.107Z,10.33
2018-06-03T22:20:10.419Z,10.73
2018-06-03T22:22:37.990Z,9.77
2018-06-03T22:25:05.376Z,11.23
2018-06-03T22:27:32.858Z,9.23
2018-06-03T22:30:00.334Z,9.70
2018-06-03T22:32:27.760Z,9.87
2018-06-03T22:34:55.103Z,10.03
2018-06-03T22:37:22.438Z,10.57
2018-06-03T22:39:49.757Z,10.03
2018-06-03T22:42:17.076Z,10.33
2018-06-03T22:44:44.384Z,9.70
2018-06-03T22:47:11.720Z,10.73
2018-06-03T22:49:44.086Z,9.90
2018-06-03T22:52:11.648Z,10.53
2018-06-03T22:54:39.016Z,11.20
2018-06-03T22:57:43.818Z,10.90
2018-06-03T23:00:22.905Z,11.33
2018-06-03T23:02:56.110Z,11.80
2018-06-03T23:05:23.696Z,11.10
2018-06-03T23:07:51.402Z,11.60
2018-06-03T23:10:19.086Z,10.60
2018-06-03T23:12:46.631Z,11.30
2018-06-03T23:15:14.218Z,11.27
2018-06-03T23:17:41.846Z,10.80
2018-06-03T23:20:09.352Z,11.37
2018-06-03T23:22:38.336Z,10.23
2018-06-03T23:25:05.921Z,10.70
2018-06-03T23:27:33.584Z,11.43
2018-06-03T23:30:01.120Z,10.93
2018-06-03T23:32:28.678Z,11.33
2018-06-03T23:34:56.198Z,11.50
2018-06-03T23:37:23.858Z,11.00
2018-06-03T23:39:51.893Z,12.50
2018-06-03T23:42:19.405Z,11.50
2018-06-03T23:44:46.950Z,11.40
2018-06-03T23:47:14.473Z,12.80
2018-06-03T23:49:42.049Z,12.20
2018-06-03T23:52:09.631Z,12.83
2018-06-03T23:54:37.146Z,11.87
2018-06-03T23:57:04.704Z,12.33
2018-06-03T23:59:32.439Z,12.07
